Sidi Ifni, Morocco
Current Conditions -  °F | °C
As of 6:00 AM on Saturday 29 Nov 2014 (Local Time) from GMAD Reporting Station
Scattered Clouds Scattered Clouds  
Wind Chill: 52°   Ceiling: Unl
Heat Index: 52°   Visibility: 5mi
Dew Point: 48°   Wind: 7mph
Humidity: 88%   Direction: 130°SE
Pressure: 29.32"   Gusts: NA
Location:  29.38°N, 10.18°W
Report Text: GMAD 290500Z 13006KT 8000 SCT030TCU SCT083 11/09 Q0993 NOSIG
Loading
Personal Weather Stations






























Interactive Weather Map New forecast layout! Learn more

10-Day Weather Forecast

Advertisements
Track Severe Weather on mobile